Time;durP1;ratioP1;P1;durP2;ratioP2;P2;SDS_P1;SDS_P2;PMS_P1;PMS_P2;Temp;Humidity;BMP_temperature;BMP_pressure;BME280_temperature;BME280_humidity;BME280_pressure;Samples;Min_cycle;Max_cycle;Signal;HPM_P1;HPM_P2
2021/04/03 00:00:11;;;;;;;13.75;6.70;;;14.90;99.90;;;;;;5034683;28;20246;-82
2021/04/03 00:02:38;;;;;;;16.13;8.38;;;14.90;99.90;;;;;;5033960;28;20029;-84
2021/04/03 00:05:06;;;;;;;18.38;8.25;;;14.80;99.90;;;;;;5034767;28;20499;-83
2021/04/03 00:07:32;;;;;;;15.88;7.03;;;14.80;99.90;;;;;;5052644;28;20108;-84
2021/04/03 00:09:58;;;;;;;11.35;7.13;;;14.90;99.90;;;;;;5052502;28;20104;-84
2021/04/03 00:12:24;;;;;;;17.00;7.13;;;14.90;99.90;;;;;;5053592;28;20048;-82
2021/04/03 00:14:51;;;;;;;14.70;8.27;;;14.90;99.90;;;;;;5056025;28;20463;-83
2021/04/03 00:17:17;;;;;;;18.85;8.00;;;14.90;99.90;;;;;;5056054;28;20037;-84
2021/04/03 00:19:43;;;;;;;11.70;7.38;;;14.90;99.90;;;;;;5038824;28;20059;-83
2021/04/03 00:22:09;;;;;;;19.88;8.48;;;14.90;99.90;;;;;;5055374;28;20053;-81
2021/04/03 00:24:35;;;;;;;20.33;7.45;;;14.80;99.90;;;;;;5056203;28;20025;-81
2021/04/03 00:27:01;;;;;;;17.00;7.95;;;14.80;99.90;;;;;;5056075;28;20116;-83
2021/04/03 00:29:27;;;;;;;16.13;6.93;;;14.80;99.90;;;;;;5056342;28;20021;-84
2021/04/03 00:31:54;;;;;;;14.65;7.45;;;14.80;99.90;;;;;;5055247;28;20052;-82
2021/04/03 00:34:19;;;;;;;18.20;6.90;;;14.90;99.90;;;;;;5055882;28;20107;-83
2021/04/03 00:36:46;;;;;;;18.20;7.82;;;14.80;99.90;;;;;;5060196;28;20025;-85
2021/04/03 00:39:12;;;;;;;16.20;7.63;;;14.80;99.90;;;;;;5060148;28;20040;-85
2021/04/03 00:41:38;;;;;;;20.33;8.23;;;14.80;99.90;;;;;;5037336;28;20513;-81
2021/04/03 00:44:07;;;;;;;16.10;7.85;;;14.90;99.90;;;;;;5056404;28;20037;-84
2021/04/03 00:46:33;;;;;;;15.70;7.80;;;14.80;99.90;;;;;;5055990;28;20502;-83
2021/04/03 00:49:00;;;;;;;19.17;7.85;;;14.90;99.90;;;;;;5038194;28;20026;-84
2021/04/03 00:51:26;;;;;;;17.15;7.03;;;14.90;99.90;;;;;;5055277;28;20395;-83
2021/04/03 00:53:53;;;;;;;19.33;8.05;;;14.90;99.90;;;;;;5055556;28;20109;-84
2021/04/03 00:56:20;;;;;;;17.02;6.93;;;14.90;99.90;;;;;;5021417;28;20029;-83
2021/04/03 00:58:47;;;;;;;14.40;6.45;;;14.90;99.90;;;;;;5037943;28;20071;-84
2021/04/03 01:01:17;;;;;;;12.38;6.13;;;15.00;99.90;;;;;;5037028;28;20037;-83
2021/04/03 01:03:48;;;;;;;15.02;6.07;;;15.00;99.90;;;;;;5040407;28;20033;-83
2021/04/03 01:06:14;;;;;;;16.45;7.40;;;15.00;99.90;;;;;;5037807;28;20041;-83
2021/04/03 01:08:41;;;;;;;18.52;7.50;;;15.00;99.90;;;;;;5038057;28;20052;-84
2021/04/03 01:11:07;;;;;;;18.38;7.60;;;15.00;99.90;;;;;;5054644;28;20028;-83
2021/04/03 01:13:43;;;;;;;16.70;7.35;;;15.00;99.90;;;;;;5037155;28;20364;-84
2021/04/03 01:16:40;;;;;;;17.83;7.57;;;15.00;99.90;;;;;;5037613;28;20107;-83
2021/04/03 01:19:49;;;;;;;12.05;7.68;;;14.90;99.90;;;;;;5037347;28;20039;-83
2021/04/03 01:22:34;;;;;;;16.08;6.30;;;14.90;99.90;;;;;;5036287;28;20091;-84
2021/04/03 01:25:03;;;;;;;18.58;7.10;;;14.90;99.90;;;;;;5054137;28;20037;-83
2021/04/03 01:27:33;;;;;;;17.67;6.65;;;15.00;99.90;;;;;;5037666;28;20021;-83
2021/04/03 01:30:22;;;;;;;13.23;6.53;;;14.90;99.90;;;;;;5055169;28;20028;-83
2021/04/03 01:33:01;;;;;;;21.65;7.25;;;14.90;99.90;;;;;;5036575;28;20178;-84
2021/04/03 01:35:40;;;;;;;14.10;6.70;;;14.90;99.90;;;;;;5036934;28;20518;-82
2021/04/03 01:38:20;;;;;;;24.95;8.15;;;14.90;99.90;;;;;;5036863;28;20025;-84
2021/04/03 01:40:49;;;;;;;16.88;8.18;;;14.90;99.90;;;;;;5037462;28;20147;-84
2021/04/03 01:43:23;;;;;;;17.17;6.72;;;14.90;99.90;;;;;;5036103;28;20044;-84
2021/04/03 01:45:54;;;;;;;13.80;7.45;;;14.90;99.90;;;;;;5054537;28;20045;-84
2021/04/03 01:48:23;;;;;;;15.80;7.50;;;14.80;99.90;;;;;;5055845;28;20544;-84
2021/04/03 01:50:50;;;;;;;17.40;8.05;;;14.80;99.90;;;;;;5062938;28;20043;-83
2021/04/03 01:53:21;;;;;;;19.38;7.75;;;14.80;99.90;;;;;;5053028;28;20031;-84
2021/04/03 01:55:54;;;;;;;14.63;7.10;;;14.70;99.90;;;;;;5020980;28;20424;-84
2021/04/03 01:58:24;;;;;;;16.50;7.13;;;14.70;99.90;;;;;;5036792;28;20040;-84
2021/04/03 02:00:51;;;;;;;19.23;8.02;;;14.70;99.90;;;;;;5054077;28;20033;-84
2021/04/03 02:03:18;;;;;;;13.98;6.68;;;14.70;99.90;;;;;;5050276;28;20036;-84
2021/04/03 02:05:48;;;;;;;16.63;7.75;;;14.70;99.90;;;;;;5054451;28;20049;-84
2021/04/03 02:08:48;;;;;;;16.15;7.75;;;14.80;99.90;;;;;;5025655;28;20036;-83
2021/04/03 02:11:38;;;;;;;17.25;7.72;;;14.70;99.90;;;;;;5040662;28;20039;-84
2021/04/03 02:14:22;;;;;;;14.20;6.35;;;14.60;99.90;;;;;;5036276;28;20423;-84
2021/04/03 02:16:52;;;;;;;12.00;6.65;;;14.70;99.90;;;;;;5053802;28;20049;-83
2021/04/03 02:19:19;;;;;;;15.50;7.68;;;14.70;99.90;;;;;;5054137;28;20029;-83
2021/04/03 02:21:47;;;;;;;14.63;7.15;;;14.70;99.90;;;;;;5035424;28;20029;-83
2021/04/03 02:24:15;;;;;;;18.65;7.07;;;14.70;99.90;;;;;;5043210;28;20480;-84
2021/04/03 02:26:41;;;;;;;16.42;7.47;;;14.70;99.90;;;;;;5054071;28;20380;-84
2021/04/03 02:29:08;;;;;;;16.13;6.43;;;14.70;99.90;;;;;;5036085;28;20025;-83
2021/04/03 02:31:36;;;;;;;12.95;8.15;;;14.70;99.90;;;;;;5035988;28;20044;-84
2021/04/03 02:34:04;;;;;;;14.23;7.72;;;14.70;99.90;;;;;;5035645;28;20021;-84
2021/04/03 02:36:33;;;;;;;21.50;8.52;;;14.60;99.90;;;;;;5053467;28;20037;-83
2021/04/03 02:38:59;;;;;;;14.43;7.38;;;14.60;99.90;;;;;;5035708;28;20101;-84
2021/04/03 02:41:54;;;;;;;25.48;8.07;;;14.60;99.90;;;;;;5035206;28;20033;-81
2021/04/03 02:44:40;;;;;;;12.35;7.35;;;14.60;99.90;;;;;;5035502;28;20040;-84
2021/04/03 02:47:11;;;;;;;18.55;7.40;;;14.60;99.90;;;;;;5053339;28;20029;-83
2021/04/03 02:49:43;;;;;;;17.60;8.02;;;14.60;99.90;;;;;;5035173;28;20055;-84
2021/04/03 02:52:15;;;;;;;21.35;8.30;;;14.60;99.90;;;;;;5035511;28;20123;-83
2021/04/03 02:54:43;;;;;;;19.38;8.07;;;14.60;99.90;;;;;;5019544;28;20028;-84
2021/04/03 02:57:14;;;;;;;21.25;7.72;;;14.40;99.90;;;;;;5053458;28;20024;-84
2021/04/03 02:59:46;;;;;;;19.30;7.60;;;14.40;99.90;;;;;;5035148;28;20458;-83
2021/04/03 03:02:21;;;;;;;24.33;8.82;;;14.40;99.90;;;;;;5058050;28;20021;-83
2021/04/03 03:04:48;;;;;;;20.80;9.13;;;14.40;99.90;;;;;;5015371;28;20461;-83
2021/04/03 03:07:16;;;;;;;24.00;8.38;;;14.30;99.90;;;;;;5015694;28;20029;-82
2021/04/03 03:09:43;;;;;;;19.00;8.13;;;14.30;99.90;;;;;;5041243;28;20040;-83
2021/04/03 03:12:13;;;;;;;17.10;8.38;;;14.20;99.90;;;;;;5035265;28;20509;-82
2021/04/03 03:14:44;;;;;;;21.67;8.30;;;14.20;99.90;;;;;;5035244;28;20594;-84
2021/04/03 03:17:13;;;;;;;21.00;7.60;;;14.20;99.90;;;;;;5035560;28;20587;-81
2021/04/03 03:19:43;;;;;;;23.05;8.02;;;14.20;99.90;;;;;;5035034;28;20033;-81
2021/04/03 03:22:10;;;;;;;19.80;9.27;;;14.30;99.90;;;;;;5019591;28;20036;-82
2021/04/03 03:24:38;;;;;;;17.80;7.55;;;14.30;99.90;;;;;;5034792;28;20033;-84
2021/04/03 03:27:06;;;;;;;31.48;9.30;;;14.30;99.90;;;;;;5035296;28;20112;-84
2021/04/03 03:29:34;;;;;;;29.40;8.10;;;14.30;99.90;;;;;;5034840;28;20067;-84
2021/04/03 03:32:00;;;;;;;19.83;8.57;;;14.20;99.90;;;;;;5053063;28;20029;-85
2021/04/03 03:34:27;;;;;;;16.75;8.32;;;14.30;99.90;;;;;;5052835;28;20055;-84
2021/04/03 03:36:58;;;;;;;26.10;8.73;;;14.30;99.90;;;;;;5035043;28;20055;-80
2021/04/03 03:39:28;;;;;;;17.15;9.23;;;14.30;99.90;;;;;;5034728;28;20060;-85
2021/04/03 03:41:58;;;;;;;16.90;7.90;;;14.30;99.90;;;;;;5035026;28;20029;-84
2021/04/03 03:44:27;;;;;;;18.58;7.70;;;14.30;99.90;;;;;;5052704;28;20556;-84
2021/04/03 03:46:53;;;;;;;18.05;8.82;;;14.30;99.90;;;;;;5054125;28;20111;-80
2021/04/03 03:49:19;;;;;;;16.80;8.30;;;14.30;99.90;;;;;;5038490;28;20021;-85
2021/04/03 03:51:46;;;;;;;21.05;9.07;;;14.30;99.90;;;;;;5056528;28;20454;-85
2021/04/03 03:54:14;;;;;;;16.58;7.75;;;14.30;99.90;;;;;;5057032;28;20032;-84
2021/04/03 03:56:41;;;;;;;20.00;9.00;;;14.30;99.90;;;;;;5056943;28;20021;-84
2021/04/03 03:59:07;;;;;;;17.30;7.90;;;14.30;99.90;;;;;;5056441;28;20502;-85
2021/04/03 04:01:34;;;;;;;18.42;7.28;;;14.30;99.90;;;;;;5038877;28;20036;-85
2021/04/03 04:04:03;;;;;;;15.40;8.18;;;14.40;99.90;;;;;;5038725;28;20039;-85
2021/04/03 04:06:31;;;;;;;17.85;8.55;;;14.30;99.90;;;;;;5056881;28;20044;-84
2021/04/03 04:09:00;;;;;;;21.48;7.82;;;14.40;99.90;;;;;;5039055;28;20029;-85
2021/04/03 04:11:26;;;;;;;21.10;7.68;;;14.40;99.90;;;;;;5038146;28;20029;-86
2021/04/03 04:13:59;;;;;;;;;;;14.30;99.90;;;;;;5041747;28;20036;-85
2021/04/03 04:16:34;;;;;;;20.80;8.30;;;14.30;99.90;;;;;;5044699;28;19927;-85
2021/04/03 04:19:02;;;;;;;14.88;7.53;;;14.30;99.90;;;;;;5056669;28;20383;-86
2021/04/03 04:21:28;;;;;;;19.83;7.55;;;14.30;99.90;;;;;;5038600;28;20025;-85
2021/04/03 04:23:55;;;;;;;25.23;8.98;;;14.40;99.90;;;;;;5027269;28;20495;-84
2021/04/03 04:26:23;;;;;;;20.08;7.75;;;14.30;99.90;;;;;;5018236;28;20102;-85
2021/04/03 04:28:52;;;;;;;14.20;6.88;;;14.30;99.90;;;;;;5047374;28;20025;-85
2021/04/03 04:31:22;;;;;;;12.57;7.80;;;14.40;99.90;;;;;;5034697;28;20501;-85
2021/04/03 04:33:57;;;;;;;14.70;7.13;;;14.30;99.90;;;;;;5037533;28;20029;-85
2021/04/03 04:36:24;;;;;;;18.48;7.13;;;14.30;99.90;;;;;;5033154;28;20032;-84
2021/04/03 04:38:51;;;;;;;19.88;7.88;;;14.40;99.90;;;;;;5029425;28;20038;-84
2021/04/03 04:41:19;;;;;;;19.98;8.82;;;14.40;99.90;;;;;;5035183;28;20537;-85
2021/04/03 04:43:47;;;;;;;26.20;9.27;;;14.40;99.90;;;;;;5036807;28;20122;-85
2021/04/03 04:46:13;;;;;;;23.30;8.70;;;14.40;99.90;;;;;;5031556;28;20450;-84
2021/04/03 04:48:51;;;;;;;16.67;7.32;;;14.40;99.90;;;;;;5025670;28;20025;-84
2021/04/03 04:51:24;;;;;;;21.88;7.15;;;14.40;99.90;;;;;;5030342;28;20025;-85
2021/04/03 04:53:55;;;;;;;16.75;8.15;;;14.40;99.90;;;;;;5057160;28;20104;-84
2021/04/03 04:56:25;;;;;;;22.08;8.07;;;14.40;99.90;;;;;;5027651;28;20033;-82
2021/04/03 04:58:52;;;;;;;19.80;9.68;;;14.40;99.90;;;;;;5052896;28;20029;-81
2021/04/03 05:01:22;;;;;;;14.85;8.35;;;14.30;99.90;;;;;;5029543;28;20025;-81
2021/04/03 05:03:49;;;;;;;21.63;8.93;;;14.30;99.90;;;;;;5042800;28;20367;-81
2021/04/03 05:06:15;;;;;;;21.92;9.43;;;14.40;99.90;;;;;;5043437;28;20047;-80
2021/04/03 05:08:41;;;;;;;19.48;8.40;;;14.40;99.90;;;;;;5031953;28;20029;-83
2021/04/03 05:11:07;;;;;;;19.92;9.27;;;14.30;99.90;;;;;;5055234;28;20025;-80
2021/04/03 05:13:33;;;;;;;15.68;8.32;;;14.40;99.90;;;;;;5055150;28;20039;-82
2021/04/03 05:15:59;;;;;;;17.75;8.35;;;14.40;99.90;;;;;;5037350;28;20559;-83
2021/04/03 05:18:25;;;;;;;22.48;8.20;;;14.40;99.90;;;;;;5054627;28;20061;-81
2021/04/03 05:20:51;;;;;;;21.63;7.45;;;14.50;99.90;;;;;;5047760;28;20021;-83
2021/04/03 05:23:18;;;;;;;20.45;7.60;;;14.50;99.90;;;;;;5046539;28;20029;-84
2021/04/03 05:25:45;;;;;;;15.15;7.55;;;14.50;99.90;;;;;;5054616;28;20563;-84
2021/04/03 05:28:13;;;;;;;20.90;8.85;;;14.50;99.90;;;;;;5057980;28;20418;-84
2021/04/03 05:30:40;;;;;;;14.20;7.93;;;14.60;99.90;;;;;;5053165;28;20040;-84
2021/04/03 05:33:06;;;;;;;17.20;7.63;;;14.60;99.90;;;;;;5040164;28;20051;-83
2021/04/03 05:35:32;;;;;;;18.30;8.15;;;14.60;99.90;;;;;;5052681;28;20075;-84
2021/04/03 05:37:58;;;;;;;15.98;7.45;;;14.60;99.90;;;;;;5053975;28;20021;-83
2021/04/03 05:40:23;;;;;;;18.55;9.30;;;14.60;99.90;;;;;;5054898;28;20494;-84
2021/04/03 05:42:52;;;;;;;15.30;7.97;;;14.70;99.90;;;;;;5045834;28;20048;-83
2021/04/03 05:45:19;;;;;;;17.27;8.98;;;14.70;99.90;;;;;;5054499;28;20543;-83
2021/04/03 05:47:46;;;;;;;16.63;8.30;;;14.70;99.90;;;;;;5054293;28;20375;-84
2021/04/03 05:50:13;;;;;;;17.08;7.55;;;14.80;99.90;;;;;;5036785;28;20483;-83
2021/04/03 05:52:41;;;;;;;13.02;8.02;;;14.90;99.90;;;;;;5036403;28;20415;-84
2021/04/03 05:55:07;;;;;;;18.23;8.13;;;14.90;99.90;;;;;;5049861;28;20040;-80
2021/04/03 05:57:34;;;;;;;15.77;7.70;;;14.90;99.90;;;;;;5034691;28;20029;-83
2021/04/03 06:00:00;;;;;;;18.35;7.28;;;15.00;99.90;;;;;;5034396;28;20048;-83
2021/04/03 06:02:26;;;;;;;15.07;7.07;;;15.00;99.90;;;;;;5034325;28;20025;-86
2021/04/03 06:04:53;;;;;;;21.05;9.07;;;15.00;99.90;;;;;;5048277;28;20044;-83
2021/04/03 06:07:19;;;;;;;11.40;7.18;;;15.00;99.90;;;;;;5053780;28;20024;-83
2021/04/03 06:09:46;;;;;;;15.60;8.40;;;15.10;99.90;;;;;;5053246;28;20535;-83
2021/04/03 06:12:12;;;;;;;19.58;7.05;;;15.10;99.90;;;;;;5053886;28;20502;-81
2021/04/03 06:14:38;;;;;;;15.40;6.60;;;15.10;99.90;;;;;;5053219;28;20025;-87
2021/04/03 06:17:05;;;;;;;14.60;6.95;;;15.20;99.90;;;;;;5054333;28;20040;-84
2021/04/03 06:19:32;;;;;;;13.55;7.20;;;15.20;99.90;;;;;;5054215;28;20108;-86
2021/04/03 06:22:02;;;;;;;16.05;7.97;;;15.30;99.90;;;;;;5054465;28;20456;-83
2021/04/03 06:24:37;;;;;;;17.40;6.97;;;15.30;99.90;;;;;;5053798;28;20108;-82
2021/04/03 06:27:16;;;;;;;14.95;7.82;;;15.30;99.90;;;;;;5054143;28;20091;-86
2021/04/03 06:29:57;;;;;;;15.02;5.78;;;15.30;99.90;;;;;;5036068;28;20033;-85
2021/04/03 06:32:34;;;;;;;19.17;7.28;;;15.40;99.90;;;;;;5053617;28;20048;-83
2021/04/03 06:35:01;;;;;;;15.77;6.05;;;15.40;99.90;;;;;;5053272;28;20027;-90
2021/04/03 06:37:31;;;;;;;15.48;7.00;;;15.50;99.90;;;;;;5053372;28;20055;-87
2021/04/03 06:40:08;;;;;;;13.68;6.50;;;15.50;99.90;;;;;;5054471;28;20028;-85
2021/04/03 06:42:49;;;;;;;15.88;6.43;;;15.60;99.90;;;;;;5053926;28;20033;-82
2021/04/03 06:45:21;;;;;;;19.00;8.05;;;15.60;99.90;;;;;;5052061;28;20241;-82
2021/04/03 06:47:58;;;;;;;14.02;6.68;;;15.70;99.90;;;;;;5052812;28;20445;-81
2021/04/03 06:50:27;;;;;;;12.13;6.03;;;15.70;99.90;;;;;;5052517;28;20036;-82
2021/04/03 06:52:53;;;;;;;17.02;6.80;;;15.80;99.90;;;;;;5052304;28;20025;-82
2021/04/03 06:55:21;;;;;;;17.13;7.75;;;15.80;99.90;;;;;;5052013;28;20021;-77
2021/04/03 06:57:48;;;;;;;14.77;5.88;;;15.90;99.90;;;;;;5051091;28;20082;-81
2021/04/03 07:00:18;;;;;;;14.20;8.15;;;15.90;99.90;;;;;;5052384;28;20033;-81
2021/04/03 07:03:00;;;;;;;14.07;6.60;;;15.90;99.90;;;;;;5052539;28;20033;-82
2021/04/03 07:05:34;;;;;;;16.80;6.88;;;15.90;99.90;;;;;;5051815;28;20037;-83
2021/04/03 07:08:03;;;;;;;12.10;6.18;;;16.10;99.90;;;;;;5052151;28;20021;-82
2021/04/03 07:10:29;;;;;;;12.32;6.40;;;16.20;99.90;;;;;;5051980;28;20032;-82
2021/04/03 07:12:56;;;;;;;12.40;6.20;;;16.20;99.90;;;;;;5034418;28;20025;-82
2021/04/03 07:15:24;;;;;;;13.18;7.05;;;16.10;99.90;;;;;;5050220;28;20441;-79
2021/04/03 07:17:51;;;;;;;10.63;6.15;;;16.10;99.90;;;;;;5044477;28;20545;-80
2021/04/03 07:20:19;;;;;;;15.70;6.82;;;16.10;99.90;;;;;;5047993;28;20100;-82
2021/04/03 07:22:59;;;;;;;12.80;6.25;;;16.10;99.90;;;;;;5040342;28;20025;-81
2021/04/03 07:25:28;;;;;;;16.20;6.03;;;16.00;99.90;;;;;;5049029;28;20049;-82
2021/04/03 07:27:56;;;;;;;11.07;5.70;;;16.00;99.90;;;;;;5051883;28;20005;-83
2021/04/03 07:30:39;;;;;;;11.88;6.15;;;16.00;99.90;;;;;;5051716;28;20426;-83
2021/04/03 07:33:09;;;;;;;12.93;6.30;;;16.10;99.90;;;;;;5051310;28;20108;-81
2021/04/03 07:35:52;;;;;;;15.85;7.13;;;16.20;99.90;;;;;;5047987;28;20104;-82
2021/04/03 07:38:23;;;;;;;10.13;5.20;;;16.30;99.90;;;;;;5045738;28;20487;-81
2021/04/03 07:41:00;;;;;;;18.63;6.07;;;16.40;99.90;;;;;;5046663;28;20035;-83
2021/04/03 07:43:29;;;;;;;14.65;6.22;;;16.50;99.90;;;;;;5044896;28;20527;-82
2021/04/03 07:45:56;;;;;;;13.40;5.72;;;16.60;99.90;;;;;;5047614;28;20111;-82
2021/04/03 07:48:38;;;;;;;12.50;6.00;;;16.60;99.90;;;;;;5031888;28;20017;-81
2021/04/03 07:51:05;;;;;;;13.40;6.38;;;16.60;99.90;;;;;;5021788;28;20080;-80
2021/04/03 07:53:35;;;;;;;11.23;6.22;;;16.60;99.90;;;;;;5043407;28;20052;-81
2021/04/03 07:56:03;;;;;;;16.15;6.95;;;16.80;99.90;;;;;;5042102;28;20029;-80
2021/04/03 07:58:31;;;;;;;15.93;6.75;;;17.00;99.90;;;;;;5051304;28;20053;-82
2021/04/03 08:01:04;;;;;;;14.25;5.15;;;17.00;99.90;;;;;;5044094;28;20388;-78
2021/04/03 08:03:31;;;;;;;10.18;5.07;;;17.00;99.90;;;;;;5032033;28;20022;-79
2021/04/03 08:06:04;;;;;;;7.53;5.45;;;17.00;99.90;;;;;;5039293;28;20071;-78
2021/04/03 08:08:32;;;;;;;14.55;5.90;;;17.00;99.90;;;;;;5051020;28;20071;-82
2021/04/03 08:11:16;;;;;;;22.65;6.55;;;17.10;99.90;;;;;;5051600;28;20029;-81
2021/04/03 08:13:48;;;;;;;13.25;5.47;;;17.20;99.90;;;;;;5051468;28;20379;-82
2021/04/03 08:16:16;;;;;;;11.10;5.82;;;17.30;99.90;;;;;;5051459;28;20053;-82
2021/04/03 08:18:45;;;;;;;11.80;5.25;;;17.20;99.90;;;;;;5050958;28;20036;-81
2021/04/03 08:21:11;;;;;;;9.38;5.18;;;17.10;99.90;;;;;;5051442;28;20033;-82
2021/04/03 08:23:40;;;;;;;11.55;6.15;;;17.00;99.90;;;;;;5051705;28;20422;-82
2021/04/03 08:26:09;;;;;;;11.27;5.95;;;17.00;99.90;;;;;;5033044;28;20041;-78
2021/04/03 08:28:36;;;;;;;10.55;6.40;;;17.10;99.90;;;;;;5030247;28;20368;-81
2021/04/03 08:31:21;;;;;;;8.77;6.28;;;17.20;99.90;;;;;;5049658;28;20013;-82
2021/04/03 08:33:52;;;;;;;10.88;5.30;;;17.40;99.90;;;;;;5039263;28;20032;-81
2021/04/03 08:36:26;;;;;;;10.25;5.82;;;17.50;99.90;;;;;;5042539;28;20394;-83
2021/04/03 08:38:54;;;;;;;16.25;6.22;;;17.50;99.90;;;;;;5055362;28;20025;-88
2021/04/03 08:41:26;;;;;;;9.57;5.70;;;17.70;99.90;;;;;;5055701;28;20028;-87
2021/04/03 08:43:55;;;;;;;14.18;6.55;;;17.70;99.90;;;;;;5055640;28;20411;-86
2021/04/03 08:46:22;;;;;;;14.27;5.95;;;17.80;99.90;;;;;;5055912;28;20037;-88
2021/04/03 08:48:57;;;;;;;13.18;5.32;;;18.00;99.90;;;;;;5055962;28;20029;-87
2021/04/03 08:51:25;;;;;;;17.77;5.78;;;18.10;99.90;;;;;;5038306;28;20040;-84
2021/04/03 08:53:59;;;;;;;10.93;5.68;;;18.20;99.90;;;;;;5037668;28;20024;-86
2021/04/03 08:56:29;;;;;;;15.40;5.80;;;18.30;99.90;;;;;;5037408;28;20040;-83
2021/04/03 08:58:57;;;;;;;10.30;5.80;;;18.30;99.90;;;;;;5037618;28;20045;-87
2021/04/03 09:01:25;;;;;;;10.27;5.38;;;18.50;99.90;;;;;;5055736;28;20075;-84
2021/04/03 09:03:56;;;;;;;15.60;6.43;;;18.50;99.90;;;;;;5020716;28;20448;-85
2021/04/03 09:06:40;;;;;;;11.98;5.63;;;18.60;99.90;;;;;;5023632;28;20041;-84
2021/04/03 09:09:08;;;;;;;11.02;5.88;;;18.70;99.90;;;;;;5020190;28;20078;-84
2021/04/03 09:11:34;;;;;;;12.32;5.63;;;18.80;99.90;;;;;;5036813;28;20049;-82
2021/04/03 09:13:59;;;;;;;13.57;7.43;;;18.80;99.90;;;;;;5054554;28;20056;-84
2021/04/03 09:16:38;;;;;;;9.85;5.55;;;18.80;99.90;;;;;;5035871;28;20061;-81
2021/04/03 09:19:05;;;;;;;11.52;5.57;;;18.90;99.90;;;;;;5025875;28;20482;-84
2021/04/03 09:21:31;;;;;;;11.02;6.18;;;19.00;99.90;;;;;;5054551;28;20096;-83
2021/04/03 09:23:57;;;;;;;9.57;5.50;;;18.90;99.90;;;;;;5036786;28;20044;-81
2021/04/03 09:26:35;;;;;;;12.57;5.28;;;18.90;99.90;;;;;;5054567;28;20041;-82
2021/04/03 09:29:09;;;;;;;12.95;5.35;;;18.90;99.90;;;;;;5048611;28;20116;-83
2021/04/03 09:31:43;;;;;;;15.20;5.55;;;19.00;99.90;;;;;;5019547;28;20175;-81
2021/04/03 09:34:10;;;;;;;12.63;5.78;;;19.00;99.90;;;;;;5028701;28;20029;-86
2021/04/03 09:36:47;;;;;;;11.25;5.45;;;19.10;99.90;;;;;;5031025;28;20029;-82
2021/04/03 09:39:20;;;;;;;15.52;5.30;;;19.20;99.90;;;;;;5036373;28;20033;-83
2021/04/03 09:41:53;;;;;;;10.70;5.47;;;19.20;99.90;;;;;;5019852;28;20376;-86
2021/04/03 09:44:19;;;;;;;;;;;19.30;99.90;;;;;;5018511;28;20356;-85
2021/04/03 09:46:48;;;;;;;10.57;5.57;;;19.50;99.90;;;;;;5036409;28;19966;-85
2021/04/03 09:49:16;;;;;;;11.95;5.53;;;19.50;99.90;;;;;;5036607;28;20060;-83
2021/04/03 09:51:42;;;;;;;14.32;5.82;;;19.60;99.90;;;;;;5006043;28;20105;-83
2021/04/03 09:54:08;;;;;;;12.25;5.47;;;19.70;99.90;;;;;;5049423;28;20116;-83
2021/04/03 09:56:34;;;;;;;12.37;5.93;;;19.80;99.90;;;;;;5053672;28;20036;-84
2021/04/03 09:59:00;;;;;;;12.73;5.38;;;19.90;99.90;;;;;;5035989;28;20793;-82
2021/04/03 10:01:26;;;;;;;12.10;5.87;;;20.10;99.90;;;;;;5035754;28;20039;-82
2021/04/03 10:03:53;;;;;;;12.90;5.60;;;20.30;99.90;;;;;;5025267;28;20334;-84
2021/04/03 10:06:20;;;;;;;10.40;5.28;;;20.30;99.90;;;;;;5016016;28;20057;-82
2021/04/03 10:08:46;;;;;;;12.10;5.82;;;20.30;99.90;;;;;;5032304;28;20032;-82
2021/04/03 10:11:12;;;;;;;11.13;4.97;;;20.30;99.90;;;;;;5001318;28;20128;-86
2021/04/03 10:13:38;;;;;;;18.50;6.82;;;20.30;99.90;;;;;;5035363;28;20037;-84
2021/04/03 10:16:04;;;;;;;12.77;5.28;;;20.40;99.90;;;;;;5036578;28;20633;-81
2021/04/03 10:18:30;;;;;;;13.07;6.63;;;20.40;99.90;;;;;;5023769;28;20431;-81
2021/04/03 10:20:56;;;;;;;12.90;6.55;;;20.50;99.90;;;;;;5013984;28;20070;-84
2021/04/03 10:23:22;;;;;;;16.27;5.47;;;20.60;99.90;;;;;;5035826;28;20025;-83
2021/04/03 10:25:48;;;;;;;14.93;5.70;;;20.70;99.90;;;;;;5035201;28;20033;-83
2021/04/03 10:28:14;;;;;;;13.75;6.15;;;20.70;99.90;;;;;;5031575;28;20032;-84
2021/04/03 10:30:40;;;;;;;18.80;6.27;;;20.80;99.90;;;;;;5035631;28;20430;-83
2021/04/03 10:33:06;;;;;;;13.35;5.45;;;21.00;99.90;;;;;;5035773;28;20032;-84
2021/04/03 10:35:32;;;;;;;18.52;6.30;;;20.90;99.90;;;;;;5035511;28;20112;-81
2021/04/03 10:37:58;;;;;;;12.65;5.15;;;20.90;99.90;;;;;;5034976;28;20452;-82
2021/04/03 10:40:24;;;;;;;11.38;5.80;;;20.90;99.90;;;;;;5052865;28;20029;-84
2021/04/03 10:42:50;;;;;;;14.02;5.90;;;20.90;99.90;;;;;;5018381;28;20491;-85
2021/04/03 10:45:16;;;;;;;13.20;4.97;;;20.80;99.90;;;;;;5032908;28;20036;-83
2021/04/03 10:47:42;;;;;;;14.88;6.00;;;20.70;99.90;;;;;;5056363;28;20029;-83
2021/04/03 10:50:09;;;;;;;12.23;4.97;;;20.50;99.90;;;;;;5023295;28;20056;-84
2021/04/03 10:52:35;;;;;;;10.63;5.63;;;20.60;99.90;;;;;;5018526;28;20271;-84
2021/04/03 10:55:01;;;;;;;12.50;6.63;;;20.90;99.90;;;;;;5018655;28;20079;-84
2021/04/03 10:57:27;;;;;;;13.60;4.75;;;21.20;99.90;;;;;;5034780;28;20090;-84
2021/04/03 10:59:53;;;;;;;9.23;4.57;;;21.30;99.90;;;;;;5018527;28;20033;-85
2021/04/03 11:02:19;;;;;;;13.60;5.60;;;21.30;99.90;;;;;;5035015;28;20025;-84
2021/04/03 11:04:45;;;;;;;11.02;4.65;;;21.40;99.90;;;;;;5035125;28;20039;-84
2021/04/03 11:07:10;;;;;;;12.97;4.70;;;21.40;99.90;;;;;;5035131;28;20368;-82
2021/04/03 11:09:36;;;;;;;10.77;4.38;;;21.10;99.90;;;;;;5033909;28;20025;-83
2021/04/03 11:12:03;;;;;;;12.17;5.53;;;20.90;99.90;;;;;;5016788;28;20025;-83
2021/04/03 11:14:29;;;;;;;7.90;4.38;;;20.70;99.90;;;;;;5046850;28;20321;-81
2021/04/03 11:16:55;;;;;;;12.50;4.63;;;20.60;99.90;;;;;;5028165;28;20128;-82
2021/04/03 11:19:21;;;;;;;9.13;4.47;;;20.60;99.90;;;;;;5049905;28;20033;-84
2021/04/03 11:21:47;;;;;;;13.13;5.90;;;20.50;99.90;;;;;;5034145;28;20035;-82
2021/04/03 11:24:16;;;;;;;13.73;5.32;;;20.30;99.90;;;;;;5034645;28;20321;-81
2021/04/03 11:26:42;;;;;;;11.90;4.97;;;19.90;99.90;;;;;;5017715;28;20028;-82
2021/04/03 11:29:08;;;;;;;11.80;5.53;;;19.90;99.90;;;;;;5036076;28;20504;-83
2021/04/03 11:31:34;;;;;;;12.43;5.50;;;19.80;99.90;;;;;;5053708;28;20365;-83
2021/04/03 11:34:00;;;;;;;13.35;6.13;;;19.70;99.90;;;;;;5034178;28;20037;-81
2021/04/03 11:36:26;;;;;;;14.98;5.45;;;19.60;99.90;;;;;;5052191;28;20021;-83
2021/04/03 11:38:52;;;;;;;14.70;6.30;;;19.40;99.90;;;;;;5034104;28;20387;-82
2021/04/03 11:41:18;;;;;;;16.40;6.80;;;19.30;99.90;;;;;;5034091;28;20036;-83
2021/04/03 11:43:44;;;;;;;16.17;6.32;;;19.30;99.90;;;;;;5034260;28;20275;-81
2021/04/03 11:46:10;;;;;;;13.05;5.85;;;19.30;99.90;;;;;;5051712;28;20076;-81
2021/04/03 11:48:36;;;;;;;15.50;5.65;;;19.10;99.90;;;;;;5051992;28;20033;-84
2021/04/03 11:51:02;;;;;;;18.65;7.35;;;19.00;99.90;;;;;;5052092;28;20502;-85
2021/04/03 11:53:28;;;;;;;21.40;6.32;;;18.80;99.90;;;;;;5017196;28;20032;-83
2021/04/03 11:55:54;;;;;;;15.18;5.85;;;18.70;99.90;;;;;;5052110;28;20028;-84
2021/04/03 11:58:20;;;;;;;19.85;6.60;;;18.50;99.90;;;;;;5051900;28;20029;-81
2021/04/03 12:00:46;;;;;;;14.07;5.28;;;18.40;99.90;;;;;;5017747;28;20032;-87
2021/04/03 12:03:12;;;;;;;13.60;5.75;;;18.40;99.90;;;;;;5015783;28;20063;-82
2021/04/03 12:05:38;;;;;;;12.57;5.82;;;18.30;99.90;;;;;;5029243;28;20041;-81
2021/04/03 12:08:04;;;;;;;16.45;6.30;;;18.10;99.90;;;;;;5047938;28;20112;-88
2021/04/03 12:10:30;;;;;;;19.08;6.32;;;18.10;99.90;;;;;;5052024;28;20127;-82
2021/04/03 12:12:56;;;;;;;18.52;6.65;;;18.00;99.90;;;;;;5026429;28;20119;-83
2021/04/03 12:15:22;;;;;;;17.70;6.33;;;17.90;99.90;;;;;;5055877;28;20041;-83
2021/04/03 12:17:48;;;;;;;17.17;6.50;;;17.80;99.90;;;;;;5037806;28;20266;-82
2021/04/03 12:20:16;;;;;;;10.90;6.22;;;17.70;99.90;;;;;;5020484;28;20029;-85
2021/04/03 12:22:46;;;;;;;13.18;6.72;;;17.60;99.90;;;;;;5037710;28;20104;-83
2021/04/03 12:25:13;;;;;;;17.42;6.20;;;17.50;99.90;;;;;;5038117;28;20083;-83
2021/04/03 12:27:40;;;;;;;19.48;6.57;;;17.50;99.90;;;;;;5021531;28;20551;-87
2021/04/03 12:30:07;;;;;;;15.57;6.82;;;17.50;99.90;;;;;;5021543;28;20116;-83
2021/04/03 12:32:33;;;;;;;16.65;7.38;;;17.50;99.90;;;;;;5038701;28;20091;-85
2021/04/03 12:34:59;;;;;;;16.85;7.68;;;17.40;99.90;;;;;;5021463;28;20029;-83
2021/04/03 12:37:25;;;;;;;16.05;7.22;;;17.30;99.90;;;;;;5020757;28;20023;-80
2021/04/03 12:39:51;;;;;;;15.95;7.00;;;17.30;99.90;;;;;;5056171;28;20029;-82
2021/04/03 12:42:17;;;;;;;19.95;7.53;;;17.30;99.90;;;;;;5038554;28;20024;-84
2021/04/03 12:44:43;;;;;;;15.82;6.90;;;17.20;99.90;;;;;;5037361;28;20442;-87
2021/04/03 12:47:09;;;;;;;22.52;8.55;;;17.20;99.90;;;;;;5038094;28;20021;-81